Latest Weather Observations for Green Cape

IDN60801

Issued at 2:32 pm EDT Wednesday 22 November 2017 (issued every 30 minutes, with the page automatically refreshed every 10 minutes)

About weather observations | Map of weather stations | Latest weather observations for NSW | Other Formats
Station Details ID: 069137 Name: GREEN CAPE AWS Lat: -37.26 Lon: 150.05 Height: 19.4 m
Data from the previous 72 hours. | See also: Recent months at Green Cape
Date/Time
EDT
Temp
°C
App
Temp
°C
Dew
Point
°C
Rel
Hum
%
Delta-T
°C
Wind Press
QNH
hPa
Press
MSL
hPa
Rain since
9am
mm
Dir  Spd
km/h
Gust
km/h
Spd
kts
Gust
kts
22/02:30pm 21.8 17.9 15.4 67 3.8 NNE 30 35 16 19 1018.6 1018.6 -
22/02:00pm 22.0 18.1 15.6 67 3.8 NNE 30 32 16 17 1018.9 1018.9 5.4
22/01:30pm 21.9 18.4 15.5 67 3.8 NNE 28 32 15 17 1019.1 1019.1 0.0
22/01:00pm 21.8 18.8 15.9 69 3.5 NNE 26 30 14 16 1019.5 1019.5 0.0
22/12:30pm 21.6 18.7 16.1 71 3.3 NNE 26 30 14 16 1019.8 1019.8 0.0
22/12:00pm 20.8 17.8 15.8 73 3.0 NNE 26 30 14 16 1019.9 1019.9 0.0
22/11:30am 20.9 18.3 15.9 73 3.0 NNE 24 26 13 14 1020.3 1020.3 0.0
22/11:00am 21.2 20.1 16.4 74 2.9 NNE 17 19 9 10 1020.6 1020.6 0.0
22/10:30am 20.7 19.5 16.1 75 2.8 NNE 17 19 9 10 1020.8 1020.8 0.0
22/10:00am 19.6 17.6 15.0 75 2.7 N 19 20 10 11 1020.8 1020.8 0.0
22/09:30am 18.7 16.6 14.8 78 2.3 N 19 20 10 11 1021.0 1021.0 0.0
22/09:00am 18.1 15.9 14.8 81 1.9 N 20 22 11 12 1021.1 1021.1 -
22/08:30am 17.7 16.0 14.6 82 1.8 N 17 17 9 9 1021.2 1021.2 -
22/08:00am 17.6 17.4 15.6 88 1.2 N 11 15 6 8 1021.3 1021.3 -
22/07:30am 15.9 15.9 14.1 89 1.0 N 7 9 4 5 1021.2 1021.2 -
22/07:00am 15.1 15.2 13.8 92 0.7 N 6 6 3 3 1021.0 1021.0 -
22/06:30am 14.7 14.5 13.6 93 0.6 N 7 9 4 5 1020.9 1020.9 -
22/06:00am 14.4 14.1 13.3 93 0.6 N 7 9 4 5 1020.8 1020.8 -
22/05:30am 14.3 13.5 13.0 92 0.7 N 9 11 5 6 1020.6 1020.6 -
22/05:00am 14.7 13.7 13.4 92 0.7 N 11 15 6 8 1020.5 1020.5 -
22/04:30am 14.8 13.1 13.5 92 0.7 N 15 17 8 9 1020.4 1020.4 -
22/04:00am 15.1 13.8 13.8 92 0.7 N 13 15 7 8 1020.6 1020.6 -
22/03:30am 15.3 12.7 13.8 91 0.8 N 20 22 11 12 1020.6 1020.6 -
22/03:00am 15.6 13.6 14.0 90 0.9 N 17 20 9 11 1021.0 1021.0 0.0
22/02:30am 15.7 13.4 14.1 90 0.9 N 19 20 10 11 1021.1 1021.1 -
22/02:00am 15.6 13.6 14.0 90 0.9 N 17 22 9 12 1021.3 1021.3 -
22/01:30am 15.8 13.2 13.8 88 1.1 N 20 22 11 12 1021.4 1021.4 -
22/01:00am 16.4 13.4 13.7 84 1.5 NNE 22 24 12 13 1021.6 1021.6 -
22/12:30am 17.1 12.6 13.8 81 1.9 NNE 30 33 16 18 1022.0 1022.0 -
22/12:00am 17.2 13.2 14.1 82 1.8 NNE 28 32 15 17 1022.1 1022.1 -
 
Date/Time
EDT
Temp
°C
App
Temp
°C
Dew
Point
°C
Rel
Hum
%
Delta-T
°C
Wind Press
QNH
hPa
Press
MSL
hPa
Rain since
9am
mm
Dir  Spd
km/h
Gust
km/h
Spd
kts
Gust
kts
21/11:30pm 17.3 13.3 14.0 81 1.9 NNE 28 32 15 17 1022.4 1022.4 -
21/11:00pm 17.5 12.8 14.2 81 1.9 NNE 32 37 17 20 1022.5 1022.5 -
21/10:30pm 17.4 12.4 14.1 81 1.9 NNE 33 39 18 21 1022.5 1022.5 -
21/10:00pm 17.5 12.8 14.4 82 1.8 NNE 32 37 17 20 1022.7 1022.7 -
21/09:30pm 17.5 12.8 14.2 81 1.9 NNE 32 35 17 19 1022.7 1022.7 -
21/09:00pm 17.6 12.8 14.1 80 2.0 NNE 32 37 17 20 1022.6 1022.6 -
21/08:30pm 17.6 12.8 14.1 80 2.0 NNE 32 35 17 19 1022.4 1022.4 -
21/08:00pm 17.7 13.6 13.8 78 2.2 NNE 28 32 15 17 1022.4 1022.4 -
21/07:30pm 18.4 14.3 13.9 75 2.6 NNE 28 30 15 16 1022.4 1022.4 -
21/07:00pm 19.1 15.0 13.9 72 3.0 NNE 28 33 15 18 1022.3 1022.3 -
21/06:30pm 19.6 15.2 14.2 71 3.1 NNE 30 35 16 19 1022.1 1022.1 -
21/06:00pm 20.0 15.8 14.6 71 3.1 NNE 30 35 16 19 1022.1 1022.1 -
21/05:30pm 20.5 16.7 14.8 70 3.3 NNE 28 33 15 18 1022.2 1022.2 -
21/05:00pm 20.8 16.7 14.9 69 3.5 NNE 30 35 16 19 1022.3 1022.3 -
21/04:30pm 21.1 16.5 14.7 67 3.8 NNE 32 37 17 20 1022.3 1022.3 -
21/04:00pm 20.7 17.0 15.0 70 3.3 NNE 28 33 15 18 1022.3 1022.3 0.8
21/03:30pm 21.5 17.8 15.1 67 3.8 NNE 28 32 15 17 1022.6 1022.6 0.0
21/03:00pm 21.8 19.1 15.6 68 3.7 NNE 24 28 13 15 1023.0 1023.0 0.0
21/02:30pm 21.4 18.5 15.0 67 3.8 NNE 24 28 13 15 1023.3 1023.3 0.0
21/02:00pm 21.5 19.2 15.8 70 3.4 NNE 22 26 12 14 1023.6 1023.6 0.0
21/01:30pm 21.2 18.1 15.5 70 3.4 NNE 26 30 14 16 1023.8 1023.8 0.0
21/01:00pm 21.1 17.5 15.2 69 3.5 NNE 28 32 15 17 1024.1 1024.1 0.0
21/12:30pm 21.6 19.9 16.3 72 3.2 NNE 20 24 11 13 1024.5 1024.5 0.0
21/12:00pm 21.2 19.5 16.2 73 3.0 NNE 20 22 11 12 1024.8 1024.8 0.0
21/11:30am 21.3 20.0 16.7 75 2.8 NNE 19 20 10 11 1025.0 1025.0 0.0
21/11:00am 20.3 18.7 15.9 76 2.6 N 19 20 10 11 1025.3 1025.3 0.0
21/10:30am 20.2 19.9 16.4 79 2.3 NNE 13 15 7 8 1025.3 1025.3 0.0
21/10:00am 19.1 18.7 16.1 83 1.8 NNE 13 15 7 8 1025.2 1025.2 0.0
21/09:30am 18.1 16.6 15.4 84 1.6 NNE 17 19 9 10 1025.0 1025.0 0.0
21/09:00am 18.1 17.2 15.9 87 1.3 NNE 15 17 8 9 1025.0 1025.0 -
21/08:30am 16.9 16.1 15.1 89 1.0 N 13 17 7 9 1025.1 1025.1 -
21/08:00am 16.6 15.4 15.1 91 0.9 N 15 17 8 9 1025.0 1025.0 -
21/07:30am 16.0 15.4 14.5 91 0.9 N 11 13 6 7 1024.8 1024.8 -
21/07:00am 16.3 15.5 15.0 92 0.7 N 13 15 7 8 1024.6 1024.6 -
21/06:30am 15.4 13.9 14.1 92 0.7 N 15 17 8 9 1024.4 1024.4 -
21/06:00am 15.7 14.6 14.4 92 0.7 N 13 17 7 9 1024.2 1024.2 -
21/05:30am 15.6 14.1 14.1 91 0.8 NNE 15 17 8 9 1024.0 1024.0 -
21/05:00am 15.7 14.0 14.6 93 0.6 NNE 17 20 9 11 1023.7 1023.7 -
21/04:30am 15.4 14.2 14.1 92 0.7 N 13 17 7 9 1023.5 1023.5 -
21/04:00am 15.6 13.7 14.3 92 0.7 N 17 20 9 11 1023.6 1023.6 -
21/03:30am 15.9 14.2 14.6 92 0.7 N 17 20 9 11 1023.8 1023.8 -
21/03:00am 15.8 14.0 14.5 92 0.7 N 17 20 9 11 1023.9 1023.9 0.0
21/02:30am 15.9 14.0 14.3 90 0.9 N 17 19 9 10 1024.1 1024.1 -
21/02:00am 16.3 14.0 14.7 90 0.9 N 20 26 11 14 1024.2 1024.2 -
21/01:30am 16.5 14.9 14.9 90 0.9 N 17 20 9 11 1024.5 1024.5 -
21/01:00am 16.7 14.7 14.9 89 1.0 N 19 22 10 12 1024.8 1024.8 -
21/12:30am 17.3 14.7 14.9 86 1.4 NNE 22 26 12 14 1025.1 1025.1 -
21/12:00am 17.4 14.2 15.2 87 1.3 NNE 26 32 14 17 1025.1 1025.1 -
 
Date/Time
EDT
Temp
°C
App
Temp
°C
Dew
Point
°C
Rel
Hum
%
Delta-T
°C
Wind Press
QNH
hPa
Press
MSL
hPa
Rain since
9am
mm
Dir  Spd
km/h
Gust
km/h
Spd
kts
Gust
kts
20/11:30pm 17.3 14.5 15.3 88 1.2 NNE 24 28 13 15 1025.2 1025.2 -
20/11:00pm 17.4 14.2 15.4 88 1.2 NNE 26 30 14 16 1025.3 1025.3 -
20/10:30pm 17.5 13.2 15.3 87 1.3 NNE 32 37 17 20 1025.2 1025.2 -
20/10:00pm 17.7 13.2 15.5 87 1.3 NNE 33 39 18 21 1025.3 1025.3 -
20/09:30pm 17.7 13.2 15.5 87 1.3 NNE 33 35 18 19 1025.2 1025.2 -
20/09:00pm 17.7 13.2 15.3 86 1.4 NNE 33 37 18 20 1024.9 1024.9 -
20/08:30pm 17.7 13.2 15.3 86 1.4 NNE 33 39 18 21 1024.9 1024.9 -
20/08:00pm 17.8 12.9 15.2 85 1.5 NNE 35 39 19 21 1024.6 1024.6 -
20/07:30pm 18.1 13.2 15.4 84 1.6 NNE 35 39 19 21 1024.4 1024.4 -
20/07:00pm 18.4 14.1 15.3 82 1.8 NNE 32 35 17 19 1024.4 1024.4 -
20/06:30pm 18.9 14.3 15.0 78 2.3 NNE 33 39 18 21 1024.3 1024.3 -
20/06:00pm 20.0 15.8 15.6 76 2.6 NNE 32 37 17 20 1024.3 1024.3 -
20/05:30pm 20.5 16.2 15.5 73 3.0 NNE 32 37 17 20 1024.3 1024.3 -
20/05:00pm 20.5 16.2 15.5 73 3.0 NNE 32 35 17 19 1024.3 1024.3 -
20/04:30pm 21.1 16.9 15.6 71 3.3 NNE 32 37 17 20 1024.4 1024.4 -
20/04:00pm 21.0 16.7 15.5 71 3.3 NNE 32 35 17 19 1024.7 1024.7 19.2
20/03:30pm 21.6 17.5 15.9 70 3.4 NNE 32 37 17 20 1024.9 1024.9 0.0
20/03:00pm 21.9 17.8 16.0 69 3.5 NNE 32 35 17 19 1025.0 1025.0 0.0
20/02:30pm 22.8 20.2 16.8 69 3.7 NNE 26 33 14 18 1025.3 1025.3 0.0
20/02:00pm 22.3 20.0 16.6 70 3.5 NNE 24 24 13 13 1025.4 1025.4 0.0
20/01:30pm 22.9 21.5 17.1 70 3.6 NNE 20 22 11 12 1025.9 1025.9 0.0
20/01:00pm 22.8 21.8 17.5 72 3.3 NNE 19 19 10 10 1026.1 1026.1 0.0
20/12:30pm 22.3 21.6 17.4 74 3.0 NNE 17 19 9 10 1026.3 1026.3 0.0
20/12:00pm 21.8 21.1 17.4 76 2.7 NNE 17 20 9 11 1026.1 1026.1 0.0
20/11:30am 21.0 20.1 16.8 77 2.6 NNE 17 19 9 10 1026.0 1026.0 0.0
20/11:00am 21.3 21.0 17.3 78 2.4 NNE 15 19 8 10 1026.3 1026.3 0.0
20/10:30am 20.2 19.4 17.0 82 1.9 NNE 17 19 9 10 1026.4 1026.4 0.0
20/10:00am 19.0 17.8 16.0 83 1.8 NNE 17 19 9 10 1026.4 1026.4 0.0
20/09:30am 19.7 19.6 16.9 84 1.7 NNE 13 15 7 8 1026.5 1026.5 0.0
20/09:00am 18.8 20.0 16.8 88 1.2 N 6 7 3 4 1026.7 1026.7 -
20/08:30am 18.0 18.9 16.7 92 0.8 N 7 9 4 5 1026.7 1026.7 -
20/08:00am 16.4 17.0 15.3 93 0.6 N 6 6 3 3 1026.2 1026.2 -
20/07:30am 16.6 16.8 15.8 95 0.5 N 9 11 5 6 1025.9 1025.9 -
20/07:00am 15.4 14.8 14.6 95 0.5 N 11 15 6 8 1025.4 1025.4 -
20/06:30am 15.4 16.1 14.6 95 0.5 N 4 11 2 6 1025.2 1025.2 -
20/06:00am 15.3 15.5 14.3 94 0.6 N 6 9 3 5 1025.1 1025.1 -
20/05:30am 15.5 14.9 14.5 94 0.6 N 11 13 6 7 1024.8 1024.8 -
20/05:00am 15.9 15.0 14.8 93 0.6 N 13 19 7 10 1024.8 1024.8 -
20/04:30am 16.3 13.8 15.2 93 0.6 NNE 22 26 12 14 1024.4 1024.4 -
20/04:00am 16.1 14.1 15.0 93 0.6 N 19 24 10 13 1024.5 1024.5 0.4
20/03:30am 16.4 15.6 15.1 92 0.8 N 13 15 7 8 1024.6 1024.6 0.4
20/03:00am 16.2 16.5 14.9 92 0.7 N 7 11 4 6 1024.6 1024.6 0.4
20/02:30am 16.4 15.5 14.9 91 0.9 N 13 17 7 9 1024.4 1024.4 0.4
20/02:00am 16.9 14.0 15.2 90 1.0 NNE 24 28 13 15 1024.4 1024.4 0.4
20/01:30am 16.9 13.6 15.1 89 1.0 NNE 26 28 14 15 1024.3 1024.3 0.4
20/01:00am 16.9 13.3 15.2 90 1.0 NNE 28 32 15 17 1024.5 1024.5 0.4
20/12:30am 16.9 14.1 15.4 91 0.9 NNE 24 26 13 14 1024.8 1024.8 0.4
20/12:00am 17.0 14.2 15.3 90 1.0 NNE 24 28 13 15 1025.0 1025.0 0.4
 
Date/Time
EDT
Temp
°C
App
Temp
°C
Dew
Point
°C
Rel
Hum
%
Delta-T
°C
Wind Press
QNH
hPa
Press
MSL
hPa
Rain since
9am
mm
Dir  Spd
km/h
Gust
km/h
Spd
kts
Gust
kts
19/11:30pm 17.2 14.1 15.7 91 0.9 NNE 26 30 14 16 1025.0 1025.0 0.4
19/11:00pm 17.2 14.1 15.7 91 0.9 NNE 26 30 14 16 1025.0 1025.0 0.4
19/10:30pm 17.3 14.3 15.8 91 0.9 NNE 26 30 14 16 1025.5 1025.5 0.4
19/10:00pm 17.3 14.3 15.8 91 0.9 NNE 26 28 14 15 1025.7 1025.7 0.4
19/09:30pm 17.3 14.3 15.8 91 0.9 NNE 26 30 14 16 1025.5 1025.5 0.4
19/09:00pm 17.3 13.9 15.8 91 0.9 NNE 28 32 15 17 1025.1 1025.1 0.4
19/08:30pm 17.3 13.5 15.8 91 0.9 NNE 30 32 16 17 1024.9 1024.9 0.4
19/08:00pm 17.4 14.0 15.7 90 1.0 NE 28 32 15 17 1024.8 1024.8 0.4
19/07:30pm 17.8 14.1 16.0 89 1.1 NE 30 35 16 19 1024.6 1024.6 0.4
19/07:00pm 18.1 14.4 16.1 88 1.2 NE 30 33 16 18 1024.4 1024.4 0.4
19/06:30pm 18.5 15.6 16.1 86 1.4 NE 26 30 14 16 1024.2 1024.2 0.4
19/06:00pm 18.8 17.1 16.2 85 1.5 ENE 20 24 11 13 1024.1 1024.1 0.4
19/05:30pm 19.9 20.2 16.9 83 1.8 NE 11 13 6 7 1024.1 1024.1 0.4
19/05:00pm 20.1 20.3 16.7 81 2.0 NE 11 13 6 7 1024.0 1024.0 0.4
19/04:30pm 20.3 20.9 16.9 81 2.1 NNE 9 9 5 5 1024.2 1024.2 0.4
19/04:00pm 20.4 20.8 16.4 78 2.4 NNE 9 13 5 7 1024.3 1024.3 0.4
19/03:30pm 20.8 21.2 17.2 80 2.2 NNE 11 11 6 6 1024.6 1024.6 0.4
19/03:00pm 20.9 20.9 17.3 80 2.2 NNE 13 15 7 8 1024.8 1024.8 0.4

Other Formats:

Comma delimited format used in spreadsheet applications
http://www.bom.gov.au/fwo/IDN60801/IDN60801.94934.axf

JavaScript Object Notation format (JSON) in row-major order
http://www.bom.gov.au/fwo/IDN60801/IDN60801.94934.json